createdAt,value
2017-12-10T00:01:20.120Z,15.93
2017-12-10T00:03:47.953Z,16.17
2017-12-10T00:06:15.388Z,18.35
2017-12-10T00:08:42.928Z,14.45
2017-12-10T00:11:10.360Z,20.67
2017-12-10T00:13:37.792Z,17.90
2017-12-10T00:16:05.797Z,17.70
2017-12-10T00:18:33.224Z,19.05
2017-12-10T00:21:00.652Z,20.23
2017-12-10T00:23:28.113Z,19.30
2017-12-10T00:25:55.536Z,12.88
2017-12-10T00:28:22.974Z,14.20
2017-12-10T00:30:50.411Z,26.12
2017-12-10T00:33:17.846Z,24.40
2017-12-10T00:35:45.676Z,22.95
2017-12-10T00:38:13.132Z,17.52
2017-12-10T00:40:40.568Z,15.02
2017-12-10T00:43:08.000Z,24.17
2017-12-10T00:45:35.780Z,21.65
2017-12-10T00:48:03.208Z,20.83
2017-12-10T00:50:30.644Z,19.35
2017-12-10T00:52:58.488Z,16.55
2017-12-10T00:55:25.920Z,26.37
2017-12-10T00:57:53.356Z,25.25
2017-12-10T01:00:20.805Z,25.48
2017-12-10T01:02:48.236Z,19.92
2017-12-10T01:05:15.668Z,19.83
2017-12-10T01:07:43.284Z,20.08
2017-12-10T01:10:10.721Z,15.88
2017-12-10T01:12:38.152Z,18.60
2017-12-10T01:15:06.000Z,19.98
2017-12-10T01:17:33.431Z,17.83
2017-12-10T01:20:00.862Z,28.25
2017-12-10T01:22:28.529Z,17.23
2017-12-10T01:24:55.961Z,20.45
2017-12-10T01:27:23.396Z,25.33
2017-12-10T01:29:51.611Z,25.83
2017-12-10T01:32:19.049Z,19.35
2017-12-10T01:34:46.475Z,21.98
2017-12-10T01:37:14.316Z,23.33
2017-12-10T01:39:41.749Z,27.98
2017-12-10T01:42:09.184Z,20.60
2017-12-10T01:44:36.780Z,22.15
2017-12-10T01:47:04.218Z,19.83
2017-12-10T01:49:31.652Z,28.30
2017-12-10T01:51:59.093Z,23.92
2017-12-10T01:54:26.524Z,23.95
2017-12-10T01:56:54.536Z,27.58
2017-12-10T01:59:21.976Z,25.30
2017-12-10T02:01:49.409Z,21.17
2017-12-10T02:04:17.244Z,22.45
2017-12-10T02:06:44.674Z,23.55
2017-12-10T02:09:12.213Z,30.70
2017-12-10T02:11:39.639Z,21.85
2017-12-10T02:14:07.820Z,20.95
2017-12-10T02:16:35.282Z,13.88
2017-12-10T02:19:02.707Z,27.17
2017-12-10T02:21:30.542Z,22.58
2017-12-10T02:23:57.993Z,25.30
2017-12-10T02:26:25.427Z,22.98
2017-12-10T02:28:52.852Z,22.33
2017-12-10T02:31:20.307Z,22.40
2017-12-10T02:33:47.739Z,25.75
2017-12-10T02:36:15.185Z,13.48
2017-12-10T02:38:42.612Z,25.12
2017-12-10T02:41:10.045Z,23.95
2017-12-10T02:43:37.472Z,24.17
2017-12-10T02:46:05.313Z,18.27
2017-12-10T02:48:32.744Z,22.00
2017-12-10T02:51:00.171Z,22.42
2017-12-10T02:53:27.632Z,25.27
2017-12-10T02:55:55.056Z,26.75
2017-12-10T02:58:22.487Z,22.92
2017-12-10T03:00:50.212Z,23.02
2017-12-10T03:03:17.649Z,21.62
2017-12-10T03:05:45.080Z,21.05
2017-12-10T03:08:13.218Z,26.48
2017-12-10T03:10:40.648Z,24.85
2017-12-10T03:13:08.085Z,26.33
2017-12-10T03:15:35.528Z,26.70
2017-12-10T03:18:02.956Z,30.23
2017-12-10T03:20:30.780Z,22.62
2017-12-10T03:22:58.536Z,19.40
2017-12-10T03:25:25.969Z,26.70
2017-12-10T03:27:53.448Z,18.75
2017-12-10T03:30:20.904Z,29.33
2017-12-10T03:32:48.337Z,20.90
2017-12-10T03:35:15.865Z,23.25
2017-12-10T03:37:43.319Z,21.17
2017-12-10T03:40:10.692Z,23.75
2017-12-10T03:42:38.124Z,24.20
2017-12-10T03:45:06.346Z,21.95
2017-12-10T03:47:33.784Z,17.37
2017-12-10T03:50:01.208Z,17.98
2017-12-10T03:52:29.049Z,22.85
2017-12-10T03:54:56.476Z,18.70
2017-12-10T03:57:23.908Z,23.65
2017-12-10T03:59:51.597Z,20.55
2017-12-10T04:02:19.023Z,19.90
2017-12-10T04:04:46.458Z,31.87
2017-12-10T04:07:14.296Z,21.27
2017-12-10T04:09:41.731Z,18.27
2017-12-10T04:12:09.171Z,18.33
2017-12-10T04:14:36.855Z,21.40
2017-12-10T04:17:04.294Z,24.70
2017-12-10T04:19:31.720Z,21.17
2017-12-10T04:21:59.176Z,22.45
2017-12-10T04:24:26.659Z,28.65
2017-12-10T04:26:54.087Z,27.20
2017-12-10T04:29:21.545Z,21.87
2017-12-10T04:31:48.980Z,24.00
2017-12-10T04:34:16.805Z,26.65
2017-12-10T04:36:44.250Z,17.35
2017-12-10T04:39:11.688Z,21.48
2017-12-10T04:41:39.123Z,15.77
2017-12-10T04:44:06.555Z,19.25
2017-12-10T04:46:34.380Z,18.83
2017-12-10T04:49:01.813Z,20.42
2017-12-10T04:51:29.254Z,17.30
2017-12-10T04:53:56.685Z,24.83
2017-12-10T04:56:24.536Z,19.15
2017-12-10T04:58:51.962Z,24.77
2017-12-10T05:01:19.387Z,16.65
2017-12-10T05:03:46.821Z,17.87
2017-12-10T05:06:14.643Z,19.08
2017-12-10T05:08:42.103Z,20.75
2017-12-10T05:11:09.536Z,14.13
2017-12-10T05:13:36.968Z,22.33
2017-12-10T05:16:04.416Z,16.25
2017-12-10T05:18:31.844Z,15.65
2017-12-10T05:20:59.278Z,26.30
2017-12-10T05:23:26.720Z,17.35
2017-12-10T05:25:54.152Z,21.12
2017-12-10T05:28:21.580Z,21.05
2017-12-10T05:30:49.124Z,17.05
2017-12-10T05:33:16.953Z,20.67
2017-12-10T05:35:44.385Z,22.20
2017-12-10T05:38:11.838Z,24.00
2017-12-10T05:40:39.272Z,23.42
2017-12-10T05:43:06.704Z,23.75
2017-12-10T05:45:34.161Z,20.30
2017-12-10T05:48:01.992Z,20.65
2017-12-10T05:50:29.429Z,19.12
2017-12-10T05:52:56.875Z,23.10
2017-12-10T05:55:24.313Z,21.92
2017-12-10T05:57:51.739Z,25.88
2017-12-10T06:00:19.568Z,22.87
2017-12-10T06:02:47.005Z,20.98
2017-12-10T06:05:14.769Z,24.10
2017-12-10T06:07:42.204Z,27.60
2017-12-10T06:10:09.637Z,21.92
2017-12-10T06:12:37.568Z,22.58
2017-12-10T06:15:05.007Z,21.35
2017-12-10T06:17:32.431Z,19.83
2017-12-10T06:20:00.023Z,26.52
2017-12-10T06:22:27.465Z,21.10
2017-12-10T06:24:54.887Z,25.80
2017-12-10T06:27:22.745Z,19.55
2017-12-10T06:29:50.576Z,23.27
2017-12-10T06:32:18.008Z,28.40
2017-12-10T06:34:45.600Z,20.95
2017-12-10T06:37:13.095Z,24.15
2017-12-10T06:39:40.460Z,25.35
2017-12-10T06:42:07.897Z,22.58
2017-12-10T06:44:35.357Z,28.27
2017-12-10T06:47:02.779Z,30.52
2017-12-10T06:49:30.209Z,24.33
2017-12-10T06:51:57.753Z,27.95
2017-12-10T06:54:25.174Z,22.50
2017-12-10T06:56:52.600Z,24.37
2017-12-10T06:59:20.044Z,24.33
2017-12-10T07:01:47.468Z,23.40
2017-12-10T07:04:14.900Z,27.58
2017-12-10T07:06:42.331Z,21.77
2017-12-10T07:09:10.180Z,23.35
2017-12-10T07:11:37.617Z,22.40
2017-12-10T07:14:05.046Z,22.52
2017-12-10T07:16:32.499Z,21.70
2017-12-10T07:18:59.932Z,23.15
2017-12-10T07:21:27.366Z,21.33
2017-12-10T07:23:55.192Z,19.73
2017-12-10T07:26:22.620Z,21.70
2017-12-10T07:28:50.082Z,20.83
2017-12-10T07:31:17.512Z,31.10
2017-12-10T07:33:44.944Z,23.23
2017-12-10T07:36:12.652Z,24.83
2017-12-10T07:38:40.089Z,21.92
2017-12-10T07:41:07.521Z,17.27
2017-12-10T07:43:36.180Z,24.50
2017-12-10T07:46:03.607Z,22.23
2017-12-10T07:48:31.040Z,22.75
2017-12-10T07:50:58.829Z,22.33
2017-12-10T07:53:26.255Z,21.80
2017-12-10T07:55:53.688Z,22.40
2017-12-10T07:58:21.543Z,21.20
2017-12-10T08:00:48.980Z,23.98
2017-12-10T08:03:16.408Z,21.80
2017-12-10T08:05:43.856Z,25.35
2017-12-10T08:08:11.292Z,27.58
2017-12-10T08:10:38.721Z,18.62
2017-12-10T08:13:06.744Z,16.83
2017-12-10T08:15:34.176Z,21.90
2017-12-10T08:18:01.604Z,18.37
2017-12-10T08:20:29.444Z,20.48
2017-12-10T08:22:56.872Z,18.85
2017-12-10T08:25:24.327Z,20.65
2017-12-10T08:27:51.893Z,22.05
2017-12-10T08:30:19.328Z,22.08
2017-12-10T08:32:46.758Z,17.85
2017-12-10T08:35:14.457Z,17.77
2017-12-10T08:37:41.888Z,18.45
2017-12-10T08:40:09.359Z,19.77
2017-12-10T08:42:36.829Z,21.15
2017-12-10T08:45:04.244Z,16.62
2017-12-10T08:47:31.677Z,20.45
2017-12-10T08:49:59.688Z,17.83
2017-12-10T08:52:27.124Z,23.17
2017-12-10T08:54:54.560Z,22.60
2017-12-10T08:57:22.414Z,17.10
2017-12-10T08:59:49.840Z,20.60
2017-12-10T09:02:17.276Z,16.35
2017-12-10T09:04:44.712Z,22.92
2017-12-10T09:07:12.146Z,23.12
2017-12-10T09:09:40.281Z,28.48
2017-12-10T09:12:07.716Z,17.27
2017-12-10T09:14:35.163Z,18.20
2017-12-10T09:17:02.620Z,24.92
2017-12-10T09:19:30.076Z,20.08
2017-12-10T09:21:57.509Z,17.87
2017-12-10T09:24:24.949Z,17.80
2017-12-10T09:26:52.393Z,21.05
2017-12-10T09:29:20.300Z,23.98
2017-12-10T09:31:47.736Z,21.17
2017-12-10T09:34:15.220Z,19.67
2017-12-10T09:36:42.671Z,15.90
2017-12-10T09:39:10.224Z,12.48
2017-12-10T09:41:37.661Z,18.75
2017-12-10T09:44:05.086Z,16.62
2017-12-10T09:46:33.075Z,17.27
2017-12-10T09:49:00.509Z,19.05
2017-12-10T09:51:28.332Z,10.88
2017-12-10T09:53:55.776Z,11.18
2017-12-10T09:56:23.207Z,12.00
2017-12-10T09:58:50.640Z,11.90
2017-12-10T10:01:18.461Z,10.82
2017-12-10T10:03:45.909Z,10.07
2017-12-10T10:06:13.356Z,10.52
2017-12-10T10:08:40.792Z,12.48
2017-12-10T10:11:08.230Z,11.70
2017-12-10T10:13:36.069Z,13.90
2017-12-10T10:16:03.497Z,15.38
2017-12-10T10:18:30.936Z,12.45
2017-12-10T10:20:58.644Z,7.68
2017-12-10T10:23:26.105Z,11.07
2017-12-10T10:25:53.930Z,18.15
2017-12-10T10:28:21.583Z,11.05
2017-12-10T10:30:49.014Z,13.20
2017-12-10T10:33:16.440Z,10.48
2017-12-10T10:35:44.280Z,8.70
2017-12-10T10:38:11.811Z,11.82
2017-12-10T10:40:39.269Z,9.40
2017-12-10T10:43:06.724Z,10.10
2017-12-10T10:45:34.152Z,10.43
2017-12-10T10:48:02.016Z,9.85
2017-12-10T10:50:29.498Z,10.68
2017-12-10T10:52:56.909Z,13.35
2017-12-10T10:55:24.728Z,9.52
2017-12-10T10:57:52.168Z,8.30
2017-12-10T11:00:19.619Z,8.18
2017-12-10T11:02:47.044Z,9.98
2017-12-10T11:05:14.864Z,8.73
2017-12-10T11:07:42.312Z,9.20
2017-12-10T11:10:09.747Z,7.85
2017-12-10T11:12:37.172Z,8.25
2017-12-10T11:15:05.005Z,6.65
2017-12-10T11:17:32.438Z,8.63
2017-12-10T11:19:59.870Z,11.38
2017-12-10T11:22:27.329Z,8.20
2017-12-10T11:24:54.756Z,8.70
2017-12-10T11:27:22.572Z,9.38
2017-12-10T11:29:50.027Z,11.27
2017-12-10T11:32:17.458Z,17.65
2017-12-10T11:34:44.885Z,7.47
2017-12-10T11:37:12.315Z,11.48
2017-12-10T11:39:40.148Z,9.63
2017-12-10T11:42:07.592Z,8.88
2017-12-10T11:44:35.042Z,10.88
2017-12-10T11:47:02.444Z,7.70
2017-12-10T11:49:30.380Z,8.75
2017-12-10T11:51:57.815Z,8.40
2017-12-10T11:54:25.250Z,11.23
2017-12-10T11:56:52.713Z,12.68
2017-12-10T11:59:20.137Z,9.43
2017-12-10T12:01:47.961Z,10.75
2017-12-10T12:04:15.717Z,9.55
2017-12-10T12:06:43.141Z,7.90
2017-12-10T12:09:10.626Z,8.55
2017-12-10T12:11:38.174Z,10.70
2017-12-10T12:14:05.584Z,9.60
2017-12-10T12:16:33.411Z,9.43
2017-12-10T12:19:00.859Z,9.15
2017-12-10T12:21:28.311Z,11.35
2017-12-10T12:23:56.430Z,18.48
2017-12-10T12:26:24.420Z,9.10
2017-12-10T12:28:51.849Z,9.00
2017-12-10T12:31:19.672Z,9.38
2017-12-10T12:33:47.125Z,11.05
2017-12-10T12:36:14.549Z,7.03
2017-12-10T12:38:42.032Z,11.98
2017-12-10T12:41:09.480Z,9.95
2017-12-10T12:43:36.908Z,9.30
2017-12-10T12:46:04.399Z,10.98
2017-12-10T12:48:32.157Z,10.50
2017-12-10T12:50:59.589Z,7.35
2017-12-10T12:53:27.015Z,10.02
2017-12-10T12:55:54.952Z,12.10
2017-12-10T12:58:22.384Z,8.23
2017-12-10T13:00:49.846Z,9.65
2017-12-10T13:03:17.456Z,7.87
2017-12-10T13:05:45.284Z,7.70
2017-12-10T13:08:12.854Z,10.20
2017-12-10T13:10:40.641Z,11.52
2017-12-10T13:13:08.461Z,9.65
2017-12-10T13:15:36.102Z,9.63
2017-12-10T13:18:04.088Z,9.40
2017-12-10T13:20:31.515Z,10.77
2017-12-10T13:22:59.908Z,11.38
2017-12-10T13:25:27.340Z,11.12
2017-12-10T13:27:54.776Z,11.90
2017-12-10T13:30:22.616Z,13.73
2017-12-10T13:32:50.049Z,10.10
2017-12-10T13:35:17.520Z,12.15
2017-12-10T13:37:44.940Z,10.70
2017-12-10T13:40:12.373Z,12.37
2017-12-10T13:42:39.834Z,11.30
2017-12-10T13:47:41.668Z,13.98
2017-12-10T13:50:09.105Z,10.23
2017-12-10T13:52:36.537Z,10.60
2017-12-10T13:55:04.312Z,13.30
2017-12-10T13:57:31.747Z,11.02
2017-12-10T13:59:59.181Z,12.88
2017-12-10T14:02:26.972Z,11.32
2017-12-10T14:04:54.405Z,11.52
2017-12-10T14:07:21.837Z,15.07
2017-12-10T14:09:49.535Z,17.92
2017-12-10T14:12:16.960Z,9.55
2017-12-10T14:14:44.393Z,16.05
2017-12-10T14:17:13.130Z,17.92
2017-12-10T14:19:41.551Z,12.57
2017-12-10T14:22:08.978Z,11.48
2017-12-10T14:24:36.424Z,13.18
2017-12-10T14:27:03.861Z,10.48
2017-12-10T14:29:31.296Z,16.33
2017-12-10T14:31:59.192Z,9.65
2017-12-10T14:34:26.630Z,12.55
2017-12-10T14:36:54.060Z,38.35
2017-12-10T14:39:21.901Z,10.40
2017-12-10T14:41:49.336Z,10.02
2017-12-10T14:44:16.769Z,12.43
2017-12-10T14:46:44.440Z,13.60
2017-12-10T14:49:11.892Z,11.45
2017-12-10T14:51:39.323Z,11.20
2017-12-10T14:54:06.780Z,12.45
2017-12-10T14:56:34.200Z,68.03
2017-12-10T14:59:01.641Z,9.80
2017-12-10T15:01:30.005Z,11.18
2017-12-10T15:03:57.437Z,10.52
2017-12-10T15:06:24.871Z,11.68
2017-12-10T15:08:52.468Z,13.57
2017-12-10T15:11:19.910Z,10.63
2017-12-10T15:13:47.328Z,10.18
2017-12-10T15:16:15.441Z,11.20
2017-12-10T15:18:42.884Z,11.65
2017-12-10T15:21:10.300Z,10.80
2017-12-10T15:23:38.334Z,11.25
2017-12-10T15:26:05.774Z,10.23
2017-12-10T15:28:33.202Z,12.23
2017-12-10T15:31:00.636Z,10.10
2017-12-10T15:33:28.460Z,11.20
2017-12-10T15:35:55.888Z,11.85
2017-12-10T15:38:23.448Z,10.27
2017-12-10T15:40:50.876Z,13.45
2017-12-10T15:43:18.301Z,9.27
2017-12-10T15:45:45.736Z,10.95
2017-12-10T15:48:13.176Z,11.98
2017-12-10T15:50:40.780Z,11.00
2017-12-10T15:53:08.604Z,12.60
2017-12-10T15:55:36.028Z,11.05
2017-12-10T15:58:03.465Z,8.20
2017-12-10T16:00:31.288Z,11.55
2017-12-10T16:02:58.713Z,9.75
2017-12-10T16:05:26.158Z,14.82
2017-12-10T16:07:53.580Z,10.02
2017-12-10T16:10:21.404Z,12.13
2017-12-10T16:12:48.844Z,10.90
2017-12-10T16:15:16.276Z,10.32
2017-12-10T16:17:43.705Z,13.73
2017-12-10T16:20:11.728Z,33.85
2017-12-10T16:22:39.157Z,10.70
2017-12-10T16:25:06.629Z,11.90
2017-12-10T16:27:34.124Z,11.63
2017-12-10T16:30:01.557Z,14.77
2017-12-10T16:32:29.004Z,16.50
2017-12-10T16:34:56.436Z,13.43
2017-12-10T16:37:23.864Z,13.62
2017-12-10T16:39:51.696Z,12.30
2017-12-10T16:42:19.122Z,11.15
2017-12-10T16:44:46.544Z,11.35
2017-12-10T16:47:14.392Z,9.40
2017-12-10T16:49:41.812Z,9.20
2017-12-10T16:52:09.255Z,13.05
2017-12-10T16:54:37.116Z,7.80
2017-12-10T16:57:04.553Z,8.73
2017-12-10T16:59:31.973Z,8.65
2017-12-10T17:01:59.408Z,9.77
2017-12-10T17:04:26.836Z,10.75
2017-12-10T17:06:54.308Z,11.43
2017-12-10T17:09:21.760Z,11.85
2017-12-10T17:11:49.194Z,8.55
2017-12-10T17:14:16.621Z,8.55
2017-12-10T17:16:44.460Z,11.27
2017-12-10T17:19:11.888Z,13.27
2017-12-10T17:21:39.337Z,10.05
2017-12-10T17:24:06.780Z,9.90
2017-12-10T17:26:34.220Z,12.37
2017-12-10T17:29:01.637Z,9.65
2017-12-10T17:31:29.076Z,10.65
2017-12-10T17:33:56.509Z,10.30
2017-12-10T17:36:24.055Z,12.37
2017-12-10T17:38:51.520Z,15.20
2017-12-10T17:41:18.943Z,8.30
2017-12-10T17:43:46.531Z,9.68
2017-12-10T17:46:13.956Z,11.32
2017-12-10T17:48:41.380Z,8.63
2017-12-10T17:51:09.100Z,10.85
2017-12-10T17:53:36.534Z,11.38
2017-12-10T17:56:03.965Z,9.05
2017-12-10T17:58:32.004Z,14.43
2017-12-10T18:00:59.430Z,11.55
2017-12-10T18:03:26.864Z,11.40
2017-12-10T18:05:54.300Z,11.20
2017-12-10T18:08:22.129Z,13.30
2017-12-10T18:10:49.553Z,10.07
2017-12-10T18:13:17.320Z,13.60
2017-12-10T18:15:44.760Z,11.05
2017-12-10T18:18:12.189Z,10.60
2017-12-10T18:20:40.204Z,11.88
2017-12-10T18:23:07.637Z,12.85
2017-12-10T18:25:35.065Z,7.72
2017-12-10T18:28:02.902Z,11.68
2017-12-10T18:30:30.336Z,8.27
2017-12-10T18:32:57.775Z,9.20
2017-12-10T18:35:25.196Z,8.32
2017-12-10T18:37:53.035Z,8.85
2017-12-10T18:40:20.464Z,7.65
2017-12-10T18:42:47.889Z,9.60
2017-12-10T18:45:15.320Z,6.95
2017-12-10T18:47:43.441Z,6.35
2017-12-10T18:50:10.864Z,7.28
2017-12-10T18:52:38.290Z,9.40
2017-12-10T18:55:05.741Z,7.90
2017-12-10T18:57:33.165Z,6.12
2017-12-10T19:00:00.592Z,6.62
2017-12-10T19:02:28.032Z,8.10
2017-12-10T19:04:55.456Z,7.37
2017-12-10T19:07:22.884Z,8.32
2017-12-10T19:09:50.318Z,6.70
2017-12-10T19:12:17.749Z,8.63
2017-12-10T19:14:45.240Z,8.27
2017-12-10T19:17:12.609Z,9.55
2017-12-10T19:19:40.041Z,10.05
2017-12-10T19:22:07.530Z,9.02
2017-12-10T19:24:34.946Z,9.07
2017-12-10T19:27:02.365Z,8.05
2017-12-10T19:29:30.212Z,10.35
2017-12-10T19:31:57.644Z,9.15
2017-12-10T19:34:25.074Z,9.25
2017-12-10T19:36:52.516Z,9.27
2017-12-10T19:39:19.945Z,6.25
2017-12-10T19:41:47.768Z,8.52
2017-12-10T19:44:15.522Z,8.63
2017-12-10T19:46:42.952Z,9.40
2017-12-10T19:49:10.372Z,6.37
2017-12-10T19:51:38.208Z,13.62
2017-12-10T19:54:05.641Z,7.82
2017-12-10T19:56:33.068Z,8.73
2017-12-10T19:59:00.513Z,6.90
2017-12-10T20:01:28.336Z,6.78
2017-12-10T20:04:00.680Z,10.07
2017-12-10T20:06:28.113Z,8.65
2017-12-10T20:08:55.536Z,8.93
2017-12-10T20:11:22.960Z,10.40
2017-12-10T20:13:50.612Z,8.82
2017-12-10T20:16:18.040Z,7.45
2017-12-10T20:18:45.460Z,7.25
2017-12-10T20:21:12.887Z,7.97
2017-12-10T20:23:40.312Z,7.55
2017-12-10T20:26:07.802Z,8.85
2017-12-10T20:28:35.230Z,8.02
2017-12-10T20:31:02.686Z,8.93
2017-12-10T20:33:30.358Z,9.60
2017-12-10T20:35:57.813Z,8.18
2017-12-10T20:38:25.237Z,7.03
2017-12-10T20:40:53.024Z,7.35
2017-12-10T20:43:20.488Z,11.57
2017-12-10T20:45:47.917Z,7.03
2017-12-10T20:48:15.349Z,9.18
2017-12-10T20:50:43.356Z,6.05
2017-12-10T20:53:10.789Z,8.65
2017-12-10T20:55:38.208Z,6.70
2017-12-10T20:58:05.660Z,9.65
2017-12-10T21:00:33.085Z,9.20
2017-12-10T21:03:00.525Z,7.95
2017-12-10T21:05:27.951Z,7.72
2017-12-10T21:07:55.773Z,7.30
2017-12-10T21:10:23.221Z,8.75
2017-12-10T21:12:50.650Z,10.43
2017-12-10T21:15:18.071Z,9.48
2017-12-10T21:17:45.935Z,6.93
2017-12-10T21:20:13.809Z,11.07
2017-12-10T21:22:41.189Z,13.88
2017-12-10T21:25:08.621Z,7.55
2017-12-10T21:27:36.111Z,8.45
2017-12-10T21:30:03.537Z,7.60
2017-12-10T21:32:31.067Z,7.82
2017-12-10T21:34:58.899Z,8.73
2017-12-10T21:37:26.316Z,8.07
2017-12-10T21:39:53.762Z,10.30
2017-12-10T21:42:21.184Z,8.35
2017-12-10T21:44:48.608Z,8.15
2017-12-10T21:47:16.052Z,8.80
2017-12-10T21:49:43.485Z,9.32
2017-12-10T21:52:10.908Z,9.90
2017-12-10T21:54:38.728Z,9.32
2017-12-10T21:57:06.160Z,8.77
2017-12-10T21:59:33.597Z,9.48
2017-12-10T22:02:01.426Z,8.43
2017-12-10T22:04:28.857Z,19.00
2017-12-10T22:06:56.299Z,9.00
2017-12-10T22:09:23.724Z,11.48
2017-12-10T22:11:51.549Z,9.18
2017-12-10T22:14:18.992Z,8.27
2017-12-10T22:16:46.427Z,14.93
2017-12-10T22:19:13.849Z,9.85
2017-12-10T22:21:41.708Z,8.02
2017-12-10T22:24:09.562Z,10.52
2017-12-10T22:26:36.992Z,11.35
2017-12-10T22:29:04.436Z,8.15
2017-12-10T22:31:31.874Z,12.20
2017-12-10T22:33:59.305Z,10.30
2017-12-10T22:36:27.305Z,9.95
2017-12-10T22:38:54.755Z,11.88
2017-12-10T22:41:22.184Z,11.00
2017-12-10T22:43:49.640Z,10.38
2017-12-10T22:46:17.068Z,12.27
2017-12-10T22:48:44.489Z,10.40
2017-12-10T22:51:12.172Z,11.38
2017-12-10T22:53:39.604Z,11.70
2017-12-10T22:56:07.032Z,11.73
2017-12-10T22:58:34.472Z,12.80
2017-12-10T23:01:01.903Z,14.38
2017-12-10T23:03:29.328Z,12.73
2017-12-10T23:05:56.769Z,13.38
2017-12-10T23:08:24.192Z,14.60
2017-12-10T23:10:51.617Z,12.40
2017-12-10T23:13:19.047Z,10.55
2017-12-10T23:15:46.477Z,10.93
2017-12-10T23:18:13.912Z,12.55
2017-12-10T23:20:41.341Z,11.30
2017-12-10T23:23:09.170Z,12.15
2017-12-10T23:25:36.916Z,10.93
2017-12-10T23:28:04.372Z,11.95
2017-12-10T23:30:31.804Z,14.13
2017-12-10T23:32:59.352Z,11.90
2017-12-10T23:35:27.177Z,11.80
2017-12-10T23:37:54.602Z,12.70
2017-12-10T23:40:22.053Z,20.62
2017-12-10T23:42:49.479Z,18.08
2017-12-10T23:45:16.913Z,12.45
2017-12-10T23:47:44.362Z,12.52
2017-12-10T23:50:11.784Z,14.30
2017-12-10T23:52:39.212Z,11.60
2017-12-10T23:55:07.509Z,13.70
2017-12-10T23:57:34.936Z,9.50
